createdAt,value
2023-02-22T00:00:44.599Z,957.25
2023-02-22T00:01:44.605Z,957.27
2023-02-22T00:02:44.655Z,957.26
2023-02-22T00:03:44.575Z,957.28
2023-02-22T00:04:45.263Z,957.16
2023-02-22T00:05:44.551Z,957.21
2023-02-22T00:06:44.522Z,957.23
2023-02-22T00:07:44.501Z,957.23
2023-02-22T00:08:44.487Z,957.16
2023-02-22T00:09:45.413Z,957.13
2023-02-22T00:10:44.464Z,957.20
2023-02-22T00:11:44.479Z,957.16
2023-02-22T00:12:44.486Z,957.18
2023-02-22T00:13:44.475Z,957.16
2023-02-22T00:14:44.423Z,957.13
2023-02-22T00:15:44.405Z,957.11
2023-02-22T00:16:44.452Z,957.10
2023-02-22T00:17:44.397Z,957.13
2023-02-22T00:18:44.413Z,957.10
2023-02-22T00:19:44.411Z,957.12
2023-02-22T00:20:44.378Z,957.09
2023-02-22T00:21:44.361Z,957.07
2023-02-22T00:22:44.325Z,957.07
2023-02-22T00:23:44.346Z,957.09
2023-02-22T00:24:44.340Z,957.08
2023-02-22T00:25:44.333Z,957.05
2023-02-22T00:26:44.294Z,957.08
2023-02-22T00:27:44.309Z,957.05
2023-02-22T00:28:44.278Z,957.00
2023-02-22T00:29:44.256Z,957.02
2023-02-22T00:30:44.239Z,957.05
2023-02-22T00:31:44.259Z,957.03
2023-02-22T00:32:44.267Z,957.05
2023-02-22T00:33:44.222Z,957.03
2023-02-22T00:34:44.200Z,957.03
2023-02-22T00:35:44.952Z,957.10
2023-02-22T00:36:44.181Z,957.08
2023-02-22T00:37:44.217Z,957.05
2023-02-22T00:38:44.263Z,957.05
2023-02-22T00:39:44.146Z,957.02
2023-02-22T00:40:44.171Z,957.03
2023-02-22T00:41:44.177Z,957.06
2023-02-22T00:42:44.109Z,957.14
2023-02-22T00:43:44.162Z,957.06
2023-02-22T00:44:44.136Z,957.02
2023-02-22T00:45:44.156Z,957.06
2023-02-22T00:46:45.103Z,957.04
2023-02-22T00:47:44.049Z,957.03
2023-02-22T00:48:44.087Z,957.04
2023-02-22T00:49:44.040Z,957.04
2023-02-22T00:50:44.867Z,957.04
2023-02-22T00:51:44.017Z,957.04
2023-02-22T00:52:43.989Z,957.06
2023-02-22T00:53:44.389Z,957.04
2023-02-22T00:54:44.075Z,957.03
2023-02-22T00:55:43.983Z,957.02
2023-02-22T00:56:43.944Z,957.01
2023-02-22T00:57:44.076Z,957.01
2023-02-22T00:58:44.028Z,956.98
2023-02-22T00:59:43.932Z,956.99
2023-02-22T01:00:43.953Z,956.99
2023-02-22T01:01:43.977Z,956.97
2023-02-22T01:02:43.879Z,956.96
2023-02-22T01:03:43.891Z,956.90
2023-02-22T01:04:43.906Z,956.95
2023-02-22T01:05:43.902Z,956.90
2023-02-22T01:06:43.839Z,956.92
2023-02-22T01:07:43.897Z,956.91
2023-02-22T01:08:43.850Z,956.90
2023-02-22T01:09:43.852Z,956.91
2023-02-22T01:10:43.810Z,956.88
2023-02-22T01:11:43.802Z,956.90
2023-02-22T01:12:43.788Z,956.87
2023-02-22T01:13:43.856Z,956.87
2023-02-22T01:14:43.773Z,956.85
2023-02-22T01:15:43.776Z,956.86
2023-02-22T01:16:43.767Z,956.84
2023-02-22T01:17:43.760Z,956.84
2023-02-22T01:18:43.715Z,956.81
2023-02-22T01:19:43.757Z,956.82
2023-02-22T01:20:43.787Z,956.83
2023-02-22T01:21:43.724Z,956.83
2023-02-22T01:22:43.686Z,956.80
2023-02-22T01:23:43.658Z,956.82
2023-02-22T01:24:43.667Z,956.78
2023-02-22T01:25:43.650Z,956.78
2023-02-22T01:26:43.720Z,956.81
2023-02-22T01:27:43.600Z,956.79
2023-02-22T01:28:43.610Z,956.81
2023-02-22T01:29:43.953Z,956.79
2023-02-22T01:30:43.673Z,956.78
2023-02-22T01:31:43.612Z,956.77
2023-02-22T01:32:43.560Z,956.75
2023-02-22T01:33:44.366Z,956.75
2023-02-22T01:34:43.547Z,956.76
2023-02-22T01:35:43.524Z,956.76
2023-02-22T01:36:44.368Z,956.76
2023-02-22T01:37:43.509Z,956.72
2023-02-22T01:38:43.590Z,956.70
2023-02-22T01:39:43.541Z,956.71
2023-02-22T01:40:43.475Z,956.72
2023-02-22T01:41:43.568Z,956.74
2023-02-22T01:42:43.485Z,956.66
2023-02-22T01:43:43.421Z,956.73
2023-02-22T01:44:43.495Z,956.69
2023-02-22T01:45:43.473Z,956.67
2023-02-22T01:46:43.413Z,956.71
2023-02-22T01:47:43.388Z,956.68
2023-02-22T01:48:44.336Z,956.69
2023-02-22T01:49:43.378Z,956.72
2023-02-22T01:50:43.396Z,956.72
2023-02-22T01:51:43.361Z,956.75
2023-02-22T01:52:43.871Z,956.72
2023-02-22T01:53:43.328Z,956.71
2023-02-22T01:54:43.431Z,956.70
2023-02-22T01:55:43.335Z,956.70
2023-02-22T01:56:43.294Z,956.69
2023-02-22T01:57:43.271Z,956.69
2023-02-22T01:58:43.302Z,956.68
2023-02-22T01:59:43.250Z,956.70
2023-02-22T02:00:43.275Z,956.66
2023-02-22T02:01:43.288Z,956.65
2023-02-22T02:02:43.248Z,956.66
2023-02-22T02:03:43.255Z,956.64
2023-02-22T02:04:43.342Z,956.63
2023-02-22T02:05:43.202Z,956.60
2023-02-22T02:06:43.306Z,956.61
2023-02-22T02:07:43.163Z,956.61
2023-02-22T02:08:43.212Z,956.56
2023-02-22T02:09:43.177Z,956.58
2023-02-22T02:10:43.142Z,956.50
2023-02-22T02:11:43.121Z,956.49
2023-02-22T02:12:43.115Z,956.52
2023-02-22T02:13:43.764Z,956.49
2023-02-22T02:14:43.092Z,956.51
2023-02-22T02:15:43.123Z,956.43
2023-02-22T02:16:43.899Z,956.51
2023-02-22T02:17:43.059Z,956.48
2023-02-22T02:18:43.054Z,956.46
2023-02-22T02:19:43.084Z,956.43
2023-02-22T02:20:43.044Z,956.42
2023-02-22T02:21:43.004Z,956.39
2023-02-22T02:22:43.022Z,956.39
2023-02-22T02:23:43.046Z,956.43
2023-02-22T02:24:43.095Z,956.40
2023-02-22T02:25:43.005Z,956.35
2023-02-22T02:26:42.955Z,956.31
2023-02-22T02:27:42.956Z,956.36
2023-02-22T02:28:42.950Z,956.32
2023-02-22T02:29:42.931Z,956.32
2023-02-22T02:30:42.920Z,956.34
2023-02-22T02:31:43.040Z,956.28
2023-02-22T02:32:42.946Z,956.28
2023-02-22T02:33:42.909Z,956.25
2023-02-22T02:34:42.881Z,956.24
2023-02-22T02:35:42.889Z,956.24
2023-02-22T02:36:42.864Z,956.22
2023-02-22T02:37:42.885Z,956.20
2023-02-22T02:38:42.876Z,956.17
2023-02-22T02:39:42.812Z,956.19
2023-02-22T02:40:42.860Z,956.18
2023-02-22T02:41:43.781Z,956.12
2023-02-22T02:42:42.799Z,956.13
2023-02-22T02:43:42.788Z,956.16
2023-02-22T02:44:42.819Z,956.13
2023-02-22T02:45:42.793Z,956.10
2023-02-22T02:46:42.831Z,956.06
2023-02-22T02:47:42.730Z,956.08
2023-02-22T02:48:42.721Z,956.07
2023-02-22T02:49:42.721Z,955.99
2023-02-22T02:50:42.722Z,956.05
2023-02-22T02:51:43.247Z,956.03
2023-02-22T02:52:42.711Z,956.08
2023-02-22T02:53:42.654Z,956.10
2023-02-22T02:54:42.682Z,956.06
2023-02-22T02:55:42.652Z,955.97
2023-02-22T02:56:42.706Z,956.01
2023-02-22T02:57:42.620Z,956.01
2023-02-22T02:58:42.634Z,956.00
2023-02-22T02:59:42.660Z,955.97
2023-02-22T03:00:42.659Z,955.96
2023-02-22T03:01:42.601Z,955.93
2023-02-22T03:02:42.559Z,955.95
2023-02-22T03:03:42.572Z,955.93
2023-02-22T03:04:42.562Z,955.95
2023-02-22T03:05:42.545Z,955.92
2023-02-22T03:06:42.594Z,955.90
2023-02-22T03:07:42.631Z,955.92
2023-02-22T03:08:42.790Z,955.97
2023-02-22T03:09:42.525Z,955.98
2023-02-22T03:10:44.137Z,955.92
2023-02-22T03:11:43.445Z,955.91
2023-02-22T03:12:42.567Z,955.92
2023-02-22T03:13:42.515Z,955.94
2023-02-22T03:14:42.458Z,955.92
2023-02-22T03:15:42.892Z,955.91
2023-02-22T03:16:42.529Z,955.89
2023-02-22T03:17:42.410Z,955.87
2023-02-22T03:18:42.398Z,955.87
2023-02-22T03:19:42.381Z,955.89
2023-02-22T03:20:45.900Z,955.86
2023-02-22T03:21:42.394Z,955.88
2023-02-22T03:22:42.504Z,955.87
2023-02-22T03:23:42.376Z,955.88
2023-02-22T03:24:42.322Z,955.85
2023-02-22T03:25:42.390Z,955.89
2023-02-22T03:26:42.365Z,955.89
2023-02-22T03:27:42.305Z,955.88
2023-02-22T03:28:42.328Z,955.89
2023-02-22T03:29:42.276Z,955.84
2023-02-22T03:30:42.293Z,955.89
2023-02-22T03:31:42.250Z,955.88
2023-02-22T03:32:44.886Z,955.88
2023-02-22T03:33:42.230Z,955.90
2023-02-22T03:34:42.244Z,955.87
2023-02-22T03:35:42.221Z,955.86
2023-02-22T03:36:42.263Z,955.86
2023-02-22T03:37:42.193Z,955.89
2023-02-22T03:38:42.194Z,955.91
2023-02-22T03:39:42.218Z,955.93
2023-02-22T03:40:42.147Z,955.94
2023-02-22T03:41:42.203Z,955.94
2023-02-22T03:42:42.346Z,955.94
2023-02-22T03:43:42.117Z,955.98
2023-02-22T03:44:42.118Z,955.97
2023-02-22T03:45:42.109Z,956.01
2023-02-22T03:46:42.155Z,956.00
2023-02-22T03:47:42.086Z,956.04
2023-02-22T03:48:42.092Z,956.04
2023-02-22T03:49:42.055Z,956.08
2023-02-22T03:50:42.031Z,956.10
2023-02-22T03:51:42.113Z,956.13
2023-02-22T03:52:42.027Z,956.09
2023-02-22T03:53:42.023Z,956.15
2023-02-22T03:54:41.989Z,956.10
2023-02-22T03:55:42.001Z,956.08
2023-02-22T03:56:41.986Z,956.18
2023-02-22T03:57:41.970Z,956.12
2023-02-22T03:58:41.971Z,956.12
2023-02-22T03:59:41.941Z,956.13
2023-02-22T04:00:41.921Z,956.14
2023-02-22T04:01:41.987Z,956.12
2023-02-22T04:02:41.979Z,956.13
2023-02-22T04:03:41.898Z,956.09
2023-02-22T04:04:41.997Z,956.12
2023-02-22T04:05:42.050Z,956.14
2023-02-22T04:06:41.927Z,956.09
2023-02-22T04:07:41.860Z,956.10
2023-02-22T04:08:41.834Z,956.12
2023-02-22T04:09:41.897Z,956.11
2023-02-22T04:10:41.898Z,956.09
2023-02-22T04:11:41.822Z,956.10
2023-02-22T04:12:41.802Z,956.11
2023-02-22T04:13:41.801Z,956.12
2023-02-22T04:14:41.768Z,956.08
2023-02-22T04:15:41.805Z,956.06
2023-02-22T04:16:41.796Z,956.04
2023-02-22T04:17:41.738Z,956.04
2023-02-22T04:18:41.732Z,956.04
2023-02-22T04:19:41.789Z,956.03
2023-02-22T04:20:41.708Z,956.04
2023-02-22T04:21:41.721Z,956.04
2023-02-22T04:22:41.725Z,956.01
2023-02-22T04:23:41.679Z,956.03
2023-02-22T04:24:41.682Z,955.99
2023-02-22T04:25:41.666Z,956.01
2023-02-22T04:26:41.760Z,956.03
2023-02-22T04:27:41.635Z,955.98
2023-02-22T04:28:41.640Z,955.97
2023-02-22T04:29:41.684Z,955.94
2023-02-22T04:30:41.673Z,955.98
2023-02-22T04:31:41.676Z,955.95
2023-02-22T04:32:41.565Z,955.90
2023-02-22T04:33:41.577Z,955.93
2023-02-22T04:34:41.573Z,955.88
2023-02-22T04:35:41.553Z,955.88
2023-02-22T04:36:41.554Z,955.85
2023-02-22T04:37:41.565Z,955.91
2023-02-22T04:38:42.374Z,955.91
2023-02-22T04:39:41.537Z,955.81
2023-02-22T04:40:41.513Z,955.86
2023-02-22T04:41:41.500Z,955.90
2023-02-22T04:42:41.516Z,955.85
2023-02-22T04:43:41.509Z,955.85
2023-02-22T04:44:41.525Z,955.80
2023-02-22T04:45:41.425Z,955.82
2023-02-22T04:46:41.495Z,955.83
2023-02-22T04:47:41.464Z,955.78
2023-02-22T04:48:41.451Z,955.79
2023-02-22T04:49:41.430Z,955.80
2023-02-22T04:50:41.369Z,955.79
2023-02-22T04:51:41.410Z,955.75
2023-02-22T04:52:41.425Z,955.77
2023-02-22T04:53:41.375Z,955.75
2023-02-22T04:54:41.365Z,955.77
2023-02-22T04:55:41.400Z,955.67
2023-02-22T04:56:41.315Z,955.73
2023-02-22T04:57:41.326Z,955.77
2023-02-22T04:58:41.312Z,955.78
2023-02-22T04:59:41.280Z,955.79
2023-02-22T05:00:41.286Z,955.78
2023-02-22T05:01:41.260Z,955.77
2023-02-22T05:02:41.490Z,955.76
2023-02-22T05:03:41.252Z,955.74
2023-02-22T05:04:41.223Z,955.79
2023-02-22T05:05:41.217Z,955.82
2023-02-22T05:06:41.192Z,955.81
2023-02-22T05:07:41.199Z,955.78
2023-02-22T05:08:41.176Z,955.81
2023-02-22T05:09:41.173Z,955.79
2023-02-22T05:10:41.254Z,955.80
2023-02-22T05:11:41.141Z,955.78
2023-02-22T05:12:41.139Z,955.78
2023-02-22T05:13:41.118Z,955.80
2023-02-22T05:14:41.122Z,955.80
2023-02-22T05:15:41.244Z,955.76
2023-02-22T05:16:41.083Z,955.82
2023-02-22T05:17:41.098Z,955.74
2023-02-22T05:18:41.111Z,955.75
2023-02-22T05:19:41.076Z,955.74
2023-02-22T05:20:41.145Z,955.73
2023-02-22T05:21:41.069Z,955.72
2023-02-22T05:22:41.070Z,955.70
2023-02-22T05:23:41.033Z,955.73
2023-02-22T05:24:41.005Z,955.70
2023-02-22T05:25:40.996Z,955.68
2023-02-22T05:26:41.081Z,955.66
2023-02-22T05:27:40.983Z,955.65
2023-02-22T05:28:40.990Z,955.67
2023-02-22T05:29:41.000Z,955.60
2023-02-22T05:30:41.082Z,955.64
2023-02-22T05:31:41.153Z,955.60
2023-02-22T05:32:40.946Z,955.61
2023-02-22T05:33:40.918Z,955.58
2023-02-22T05:34:40.930Z,955.61
2023-02-22T05:35:40.890Z,955.67
2023-02-22T05:36:40.921Z,955.63
2023-02-22T05:37:40.901Z,955.63
2023-02-22T05:38:40.913Z,955.64
2023-02-22T05:39:40.850Z,955.61
2023-02-22T05:40:40.833Z,955.57
2023-02-22T05:41:40.876Z,955.62
2023-02-22T05:42:40.824Z,955.60
2023-02-22T05:43:40.856Z,955.59
2023-02-22T05:44:40.778Z,955.60
2023-02-22T05:45:40.771Z,955.57
2023-02-22T05:46:40.795Z,955.55
2023-02-22T05:47:40.803Z,955.56
2023-02-22T05:48:40.843Z,955.57
2023-02-22T05:49:40.841Z,955.56
2023-02-22T05:50:40.863Z,955.57
2023-02-22T05:51:40.724Z,955.59
2023-02-22T05:52:40.696Z,955.59
2023-02-22T05:53:40.750Z,955.57
2023-02-22T05:54:40.685Z,955.60
2023-02-22T05:55:41.444Z,955.58
2023-02-22T05:56:40.663Z,955.56
2023-02-22T05:57:40.656Z,955.58
2023-02-22T05:58:40.711Z,955.49
2023-02-22T05:59:40.615Z,955.53
2023-02-22T06:00:40.647Z,955.52
2023-02-22T06:01:40.667Z,955.48
2023-02-22T06:02:40.640Z,955.50
2023-02-22T06:03:40.611Z,955.53
2023-02-22T06:04:40.632Z,955.50
2023-02-22T06:05:40.609Z,955.49
2023-02-22T06:06:40.534Z,955.53
2023-02-22T06:07:40.554Z,955.49
2023-02-22T06:08:40.541Z,955.49
2023-02-22T06:09:40.556Z,955.47
2023-02-22T06:10:40.497Z,955.51
2023-02-22T06:11:40.487Z,955.51
2023-02-22T06:12:40.501Z,955.51
2023-02-22T06:13:40.477Z,955.48
2023-02-22T06:14:40.486Z,955.54
2023-02-22T06:15:40.453Z,955.58
2023-02-22T06:16:40.426Z,955.50
2023-02-22T06:17:40.422Z,955.52
2023-02-22T06:18:40.446Z,955.52
2023-02-22T06:19:40.399Z,955.54
2023-02-22T06:20:40.393Z,955.54
2023-02-22T06:21:40.366Z,955.53
2023-02-22T06:22:40.375Z,955.53
2023-02-22T06:23:40.371Z,955.54
2023-02-22T06:24:40.336Z,955.56
2023-02-22T06:25:41.424Z,955.56
2023-02-22T06:26:40.322Z,955.50
2023-02-22T06:27:40.299Z,955.57
2023-02-22T06:28:40.327Z,955.58
2023-02-22T06:29:40.285Z,955.56
2023-02-22T06:30:40.358Z,955.55
2023-02-22T06:31:40.444Z,955.55
2023-02-22T06:32:40.332Z,955.63
2023-02-22T06:33:40.267Z,955.67
2023-02-22T06:34:40.250Z,955.60
2023-02-22T06:35:40.254Z,955.64
2023-02-22T06:36:40.361Z,955.68
2023-02-22T06:37:40.818Z,955.63
2023-02-22T06:38:40.279Z,955.66
2023-02-22T06:39:40.366Z,955.68
2023-02-22T06:40:40.178Z,955.70
2023-02-22T06:41:40.148Z,955.71
2023-02-22T06:42:40.227Z,955.66
2023-02-22T06:43:40.171Z,955.67
2023-02-22T06:44:40.118Z,955.69
2023-02-22T06:45:40.185Z,955.71
2023-02-22T06:46:40.946Z,955.75
2023-02-22T06:47:40.086Z,955.72
2023-02-22T06:48:40.101Z,955.77
2023-02-22T06:49:40.060Z,955.77
2023-02-22T06:50:40.756Z,955.78
2023-02-22T06:51:40.052Z,955.85
2023-02-22T06:52:40.096Z,955.82
2023-02-22T06:53:40.261Z,955.84
2023-02-22T06:54:40.074Z,955.86
2023-02-22T06:55:40.010Z,955.89
2023-02-22T06:56:39.991Z,955.83
2023-02-22T06:57:40.037Z,955.85
2023-02-22T06:58:40.448Z,955.85
2023-02-22T06:59:40.012Z,955.89
2023-02-22T07:00:40.099Z,955.90
2023-02-22T07:01:39.928Z,955.85
2023-02-22T07:02:39.936Z,955.79
2023-02-22T07:03:39.996Z,955.87
2023-02-22T07:04:42.845Z,955.91
2023-02-22T07:05:39.917Z,955.91
2023-02-22T07:06:39.904Z,955.90
2023-02-22T07:07:40.940Z,955.90
2023-02-22T07:08:39.897Z,955.88
2023-02-22T07:09:39.954Z,955.89
2023-02-22T07:10:39.873Z,955.90
2023-02-22T07:11:39.842Z,955.91
2023-02-22T07:12:39.881Z,955.94
2023-02-22T07:13:40.874Z,955.92
2023-02-22T07:14:39.855Z,955.91
2023-02-22T07:15:39.772Z,955.91
2023-02-22T07:16:39.851Z,955.91
2023-02-22T07:17:39.802Z,955.93
2023-02-22T07:18:39.761Z,955.91
2023-02-22T07:19:40.441Z,955.93
2023-02-22T07:20:39.808Z,955.92
2023-02-22T07:21:39.839Z,955.91
2023-02-22T07:23:00.842Z,955.94
2023-02-22T07:23:39.690Z,955.89
2023-02-22T07:24:39.687Z,955.91
2023-02-22T07:25:39.670Z,955.82
2023-02-22T07:26:39.792Z,955.84
2023-02-22T07:27:39.698Z,955.85
2023-02-22T07:28:39.776Z,955.82
2023-02-22T07:29:39.945Z,955.81
2023-02-22T07:30:39.640Z,955.83
2023-02-22T07:32:00.626Z,955.89
2023-02-22T07:32:39.706Z,955.83
2023-02-22T07:33:39.714Z,955.86
2023-02-22T07:34:39.920Z,955.85
2023-02-22T07:35:40.430Z,955.85
2023-02-22T07:36:39.556Z,955.83
2023-02-22T07:37:39.539Z,955.84
2023-02-22T07:38:39.553Z,955.84
2023-02-22T07:39:39.529Z,955.86
2023-02-22T07:40:39.523Z,955.82
2023-02-22T07:41:39.542Z,955.82
2023-02-22T07:42:39.509Z,955.78
2023-02-22T07:43:39.503Z,955.82
2023-02-22T07:44:39.490Z,955.78
2023-02-22T07:45:39.494Z,955.75
2023-02-22T07:46:39.497Z,955.76
2023-02-22T07:47:39.450Z,955.76
2023-02-22T07:48:39.567Z,955.76
2023-02-22T07:49:39.464Z,955.72
2023-02-22T07:50:39.444Z,955.71
2023-02-22T07:51:39.380Z,955.66
2023-02-22T07:52:39.379Z,955.65
2023-02-22T07:53:39.452Z,955.64
2023-02-22T07:54:39.379Z,955.67
2023-02-22T07:55:39.339Z,955.64
2023-02-22T07:56:39.426Z,955.66
2023-02-22T07:57:39.314Z,955.64
2023-02-22T07:58:39.314Z,955.65
2023-02-22T07:59:39.310Z,955.66
2023-02-22T08:00:39.314Z,955.62
2023-02-22T08:01:39.313Z,955.64
2023-02-22T08:02:39.331Z,955.66
2023-02-22T08:03:39.325Z,955.66
2023-02-22T08:04:39.386Z,955.68
2023-02-22T08:05:39.239Z,955.67
2023-02-22T08:06:40.722Z,955.65
2023-02-22T08:07:39.214Z,955.63
2023-02-22T08:08:39.262Z,955.62
2023-02-22T08:09:39.264Z,955.57
2023-02-22T08:10:39.215Z,955.59
2023-02-22T08:11:39.195Z,955.58
2023-02-22T08:12:39.175Z,955.54
2023-02-22T08:13:39.200Z,955.57
2023-02-22T08:14:39.201Z,955.58
2023-02-22T08:15:39.164Z,955.58
2023-02-22T08:16:39.169Z,955.67
2023-02-22T08:17:39.110Z,955.54
2023-02-22T08:18:39.133Z,955.58
2023-02-22T08:19:39.129Z,955.62
2023-02-22T08:20:39.183Z,955.54
2023-02-22T08:21:39.091Z,955.54
2023-02-22T08:22:39.090Z,955.55
2023-02-22T08:23:39.071Z,955.57
2023-02-22T08:24:39.323Z,955.54
2023-02-22T08:25:39.096Z,955.55
2023-02-22T08:26:39.214Z,955.54
2023-02-22T08:27:39.070Z,955.51
2023-02-22T08:28:39.120Z,955.51
2023-02-22T08:29:38.992Z,955.52
2023-02-22T08:30:40.416Z,955.48
2023-02-22T08:31:38.985Z,955.49
2023-02-22T08:32:39.877Z,955.51
2023-02-22T08:33:39.079Z,955.48
2023-02-22T08:34:39.021Z,955.50
2023-02-22T08:35:38.970Z,955.50
2023-02-22T08:36:38.981Z,955.44
2023-02-22T08:37:38.883Z,955.49
2023-02-22T08:38:39.927Z,955.47
2023-02-22T08:39:38.952Z,955.50
2023-02-22T08:40:38.935Z,955.44
2023-02-22T08:41:38.857Z,955.47
2023-02-22T08:42:39.443Z,955.46
2023-02-22T08:43:38.923Z,955.45
2023-02-22T08:44:38.823Z,955.40
2023-02-22T08:45:38.910Z,955.34
2023-02-22T08:46:38.794Z,955.44
2023-02-22T08:47:39.980Z,955.46
2023-02-22T08:48:38.759Z,955.42
2023-02-22T08:49:38.783Z,955.41
2023-02-22T08:50:38.771Z,955.42
2023-02-22T08:51:38.866Z,955.36
2023-02-22T08:52:38.717Z,955.37
2023-02-22T08:53:38.723Z,955.39
2023-02-22T08:54:38.730Z,955.36
2023-02-22T08:55:38.785Z,955.38
2023-02-22T08:56:38.820Z,955.40
2023-02-22T08:57:38.645Z,955.40
2023-02-22T08:58:38.725Z,955.40
2023-02-22T08:59:38.653Z,955.33
2023-02-22T09:00:39.099Z,955.33
2023-02-22T09:01:39.103Z,955.31
2023-02-22T09:02:38.626Z,955.31
2023-02-22T09:03:38.615Z,955.34
2023-02-22T09:04:38.701Z,955.34
2023-02-22T09:05:38.645Z,955.32
2023-02-22T09:06:38.983Z,955.33
2023-02-22T09:07:38.586Z,955.33
2023-02-22T09:08:38.591Z,955.31
2023-02-22T09:09:38.516Z,955.32
2023-02-22T09:10:39.297Z,955.35
2023-02-22T09:11:38.573Z,955.32
2023-02-22T09:12:38.492Z,955.32
2023-02-22T09:13:38.482Z,955.34
2023-02-22T09:14:38.534Z,955.28
2023-02-22T09:15:38.472Z,955.30
2023-02-22T09:16:38.590Z,955.31
2023-02-22T09:17:39.509Z,955.30
2023-02-22T09:18:44.273Z,955.31
2023-02-22T09:19:38.506Z,955.25
2023-02-22T09:20:38.581Z,955.30
2023-02-22T09:21:38.407Z,955.22
2023-02-22T09:22:38.426Z,955.22
2023-02-22T09:23:39.395Z,955.22
2023-02-22T09:24:38.430Z,955.22
2023-02-22T09:25:38.542Z,955.22
2023-02-22T09:26:38.326Z,955.22
2023-02-22T09:27:38.312Z,955.22
2023-02-22T09:28:38.324Z,955.22
2023-02-22T09:29:38.884Z,955.24
2023-02-22T09:30:38.469Z,955.17
2023-02-22T09:31:38.447Z,955.19
2023-02-22T09:32:38.901Z,955.19
2023-02-22T09:33:38.297Z,955.17
2023-02-22T09:34:38.517Z,955.17
2023-02-22T09:35:38.345Z,955.14
2023-02-22T09:36:38.278Z,955.14
2023-02-22T09:37:38.697Z,955.09
2023-02-22T09:38:38.198Z,955.13
2023-02-22T09:39:38.256Z,955.16
2023-02-22T09:40:38.181Z,955.15
2023-02-22T09:41:38.430Z,955.16
2023-02-22T09:42:38.186Z,955.10
2023-02-22T09:43:38.193Z,955.13
2023-02-22T09:44:38.145Z,955.13
2023-02-22T09:45:38.282Z,955.10
2023-02-22T09:46:38.159Z,955.08
2023-02-22T09:47:38.121Z,955.07
2023-02-22T09:48:38.098Z,955.09
2023-02-22T09:49:38.215Z,955.07
2023-02-22T09:50:38.213Z,955.09
2023-02-22T09:51:38.115Z,955.09
2023-02-22T09:52:38.055Z,955.07
2023-02-22T09:53:38.050Z,955.04
2023-02-22T09:54:38.312Z,955.02
2023-02-22T09:55:38.055Z,955.07
2023-02-22T09:56:38.019Z,955.02
2023-02-22T09:57:38.000Z,955.01
2023-02-22T09:58:40.178Z,955.01
2023-02-22T09:59:38.819Z,955.01
2023-02-22T10:00:37.977Z,955.00
2023-02-22T10:01:38.189Z,954.96
2023-02-22T10:02:37.968Z,954.94
2023-02-22T10:03:39.944Z,954.94
2023-02-22T10:04:37.906Z,954.92
2023-02-22T10:05:37.984Z,954.95
2023-02-22T10:06:37.986Z,954.95
2023-02-22T10:07:37.894Z,954.94
2023-02-22T10:08:37.959Z,954.95
2023-02-22T10:09:38.033Z,954.97
2023-02-22T10:10:38.407Z,954.91
2023-02-22T10:11:37.912Z,954.93
2023-02-22T10:12:37.812Z,954.91
2023-02-22T10:13:37.819Z,954.91
2023-02-22T10:14:38.805Z,954.84
2023-02-22T10:15:37.830Z,954.83
2023-02-22T10:16:38.803Z,954.84
2023-02-22T10:17:37.799Z,954.83
2023-02-22T10:18:37.819Z,954.81
2023-02-22T10:19:37.816Z,954.83
2023-02-22T10:20:38.469Z,954.80
2023-02-22T10:21:37.759Z,954.83
2023-02-22T10:22:37.773Z,954.81
2023-02-22T10:23:37.792Z,954.78
2023-02-22T10:24:37.685Z,954.81
2023-02-22T10:25:37.723Z,954.78
2023-02-22T10:26:37.663Z,954.77
2023-02-22T10:27:37.670Z,954.84
2023-02-22T10:28:37.664Z,954.78
2023-02-22T10:29:37.721Z,954.78
2023-02-22T10:30:37.706Z,954.78
2023-02-22T10:31:38.556Z,954.80
2023-02-22T10:32:37.656Z,954.80
2023-02-22T10:33:37.627Z,954.78
2023-02-22T10:34:37.637Z,954.78
2023-02-22T10:35:38.449Z,954.71
2023-02-22T10:36:37.708Z,954.74
2023-02-22T10:37:38.030Z,954.75
2023-02-22T10:38:37.554Z,954.72
2023-02-22T10:39:37.583Z,954.71
2023-02-22T10:40:37.655Z,954.71
2023-02-22T10:41:37.583Z,954.71
2023-02-22T10:42:37.525Z,954.67
2023-02-22T10:43:37.492Z,954.67
2023-02-22T10:44:37.605Z,954.60
2023-02-22T10:45:37.540Z,954.65
2023-02-22T10:46:37.448Z,954.67
2023-02-22T10:47:37.465Z,954.66
2023-02-22T10:48:37.456Z,954.68
2023-02-22T10:49:37.424Z,954.70
2023-02-22T10:50:38.421Z,954.68
2023-02-22T10:51:37.392Z,954.68
2023-02-22T10:52:37.491Z,954.68
2023-02-22T10:53:37.370Z,954.63
2023-02-22T10:54:37.404Z,954.63
2023-02-22T10:55:37.364Z,954.66
2023-02-22T10:56:37.456Z,954.63
2023-02-22T10:57:38.282Z,954.66
2023-02-22T10:58:37.323Z,954.64
2023-02-22T10:59:37.475Z,954.66
2023-02-22T11:00:37.354Z,954.64
2023-02-22T11:01:37.434Z,954.65
2023-02-22T11:02:37.269Z,954.66
2023-02-22T11:03:37.252Z,954.60
2023-02-22T11:04:37.275Z,954.61
2023-02-22T11:05:37.278Z,954.59
2023-02-22T11:06:37.299Z,954.60
2023-02-22T11:07:37.310Z,954.53
2023-02-22T11:08:37.297Z,954.51
2023-02-22T11:09:37.207Z,954.51
2023-02-22T11:10:37.183Z,954.52
2023-02-22T11:11:37.173Z,954.49
2023-02-22T11:12:37.233Z,954.53
2023-02-22T11:13:37.813Z,954.52
2023-02-22T11:14:37.229Z,954.46
2023-02-22T11:15:38.125Z,954.48
2023-02-22T11:16:37.159Z,954.43
2023-02-22T11:17:37.117Z,954.47
2023-02-22T11:18:37.135Z,954.41
2023-02-22T11:19:37.085Z,954.41
2023-02-22T11:20:37.191Z,954.36
2023-02-22T11:21:37.936Z,954.38
2023-02-22T11:22:37.109Z,954.34
2023-02-22T11:23:37.048Z,954.31
2023-02-22T11:24:48.769Z,954.26
2023-02-22T11:25:37.317Z,954.28
2023-02-22T11:26:37.040Z,954.25
2023-02-22T11:27:37.032Z,954.20
2023-02-22T11:28:36.984Z,954.22
2023-02-22T11:29:37.114Z,954.17
2023-02-22T11:30:37.109Z,954.20
2023-02-22T11:31:37.148Z,954.18
2023-02-22T11:32:36.953Z,954.19
2023-02-22T11:33:36.993Z,954.15
2023-02-22T11:34:36.964Z,954.12
2023-02-22T11:35:36.934Z,954.14
2023-02-22T11:36:36.888Z,954.11
2023-02-22T11:37:36.974Z,954.09
2023-02-22T11:38:36.878Z,954.03
2023-02-22T11:39:36.931Z,954.05
2023-02-22T11:40:36.974Z,954.07
2023-02-22T11:41:36.841Z,954.05
2023-02-22T11:42:36.903Z,954.04
2023-02-22T11:43:37.115Z,954.03
2023-02-22T11:44:36.817Z,954.00
2023-02-22T11:45:38.587Z,954.03
2023-02-22T11:46:36.873Z,953.97
2023-02-22T11:47:36.811Z,953.94
2023-02-22T11:48:36.846Z,953.96
2023-02-22T11:49:36.767Z,953.98
2023-02-22T11:50:36.737Z,953.96
2023-02-22T11:51:36.720Z,953.93
2023-02-22T11:52:36.774Z,953.94
2023-02-22T11:53:36.833Z,953.93
2023-02-22T11:54:36.715Z,953.90
2023-02-22T11:55:43.260Z,953.96
2023-02-22T11:56:38.364Z,953.94
2023-02-22T11:57:37.513Z,953.96
2023-02-22T11:58:36.664Z,953.88
2023-02-22T11:59:36.676Z,953.88
2023-02-22T12:00:36.695Z,953.88
2023-02-22T12:01:36.653Z,953.87
2023-02-22T12:02:37.488Z,953.89
2023-02-22T12:03:37.192Z,953.86
2023-02-22T12:04:36.713Z,953.85
2023-02-22T12:05:36.571Z,953.87
2023-02-22T12:06:36.562Z,953.84
2023-02-22T12:07:36.573Z,953.82
2023-02-22T12:08:36.586Z,953.88
2023-02-22T12:09:36.646Z,953.82
2023-02-22T12:10:36.558Z,953.79
2023-02-22T12:11:36.511Z,953.81
2023-02-22T12:12:36.533Z,953.80
2023-02-22T12:13:36.502Z,953.80
2023-02-22T12:14:36.481Z,953.78
2023-02-22T12:15:36.548Z,953.76
2023-02-22T12:16:36.463Z,953.76
2023-02-22T12:17:36.520Z,953.76
2023-02-22T12:18:36.490Z,953.74
2023-02-22T12:19:36.475Z,953.73
2023-02-22T12:20:36.406Z,953.73
2023-02-22T12:21:36.390Z,953.74
2023-02-22T12:22:36.403Z,953.73
2023-02-22T12:23:36.488Z,953.73
2023-02-22T12:24:36.397Z,953.72
2023-02-22T12:25:36.371Z,953.69
2023-02-22T12:26:36.433Z,953.70
2023-02-22T12:27:36.510Z,953.72
2023-02-22T12:28:36.438Z,953.70